sensor_id;sensor_type;location;lat;lon;timestamp;temperature;humidity
15384;DHT22;7790;53.022;12.968;2022-07-23T00:01:35;22.70;52.20
15384;DHT22;7790;53.022;12.968;2022-07-23T00:05:36;22.60;52.10
15384;DHT22;7790;53.022;12.968;2022-07-23T00:09:37;22.60;52.10
15384;DHT22;7790;53.022;12.968;2022-07-23T00:13:38;22.60;52.00
15384;DHT22;7790;53.022;12.968;2022-07-23T00:17:38;22.60;52.50
15384;DHT22;7790;53.022;12.968;2022-07-23T00:21:39;22.60;52.00
15384;DHT22;7790;53.022;12.968;2022-07-23T00:25:40;22.60;51.90
15384;DHT22;7790;53.022;12.968;2022-07-23T00:29:41;22.60;51.90
15384;DHT22;7790;53.022;12.968;2022-07-23T00:33:42;22.60;52.30
15384;DHT22;7790;53.022;12.968;2022-07-23T00:37:42;22.60;51.70
15384;DHT22;7790;53.022;12.968;2022-07-23T00:41:43;22.60;51.60
15384;DHT22;7790;53.022;12.968;2022-07-23T00:45:44;22.50;51.60
15384;DHT22;7790;53.022;12.968;2022-07-23T00:49:45;22.60;51.60
15384;DHT22;7790;53.022;12.968;2022-07-23T00:53:46;22.50;51.60
15384;DHT22;7790;53.022;12.968;2022-07-23T00:57:47;22.50;51.50
15384;DHT22;7790;53.022;12.968;2022-07-23T01:01:48;22.50;51.90
15384;DHT22;7790;53.022;12.968;2022-07-23T01:05:49;22.50;51.40
15384;DHT22;7790;53.022;12.968;2022-07-23T01:09:51;22.50;51.40
15384;DHT22;7790;53.022;12.968;2022-07-23T01:13:52;22.50;51.30
15384;DHT22;7790;53.022;12.968;2022-07-23T01:17:53;22.40;51.20
15384;DHT22;7790;53.022;12.968;2022-07-23T01:21:55;22.50;51.30
15384;DHT22;7790;53.022;12.968;2022-07-23T01:25:57;22.40;51.20
15384;DHT22;7790;53.022;12.968;2022-07-23T01:30:00;22.50;51.40
15384;DHT22;7790;53.022;12.968;2022-07-23T01:34:01;22.40;51.30
15384;DHT22;7790;53.022;12.968;2022-07-23T01:38:03;22.40;51.30
15384;DHT22;7790;53.022;12.968;2022-07-23T01:42:04;22.40;51.30
15384;DHT22;7790;53.022;12.968;2022-07-23T01:46:06;22.40;51.30
15384;DHT22;7790;53.022;12.968;2022-07-23T01:50:13;22.40;51.30
15384;DHT22;7790;53.022;12.968;2022-07-23T01:54:33;22.40;51.40
15384;DHT22;7790;53.022;12.968;2022-07-23T01:58:35;22.30;51.50
15384;DHT22;7790;53.022;12.968;2022-07-23T02:02:36;22.40;51.60
15384;DHT22;7790;53.022;12.968;2022-07-23T02:06:37;22.30;51.50
15384;DHT22;7790;53.022;12.968;2022-07-23T02:10:38;22.30;51.60
15384;DHT22;7790;53.022;12.968;2022-07-23T02:14:40;22.30;51.70
15384;DHT22;7790;53.022;12.968;2022-07-23T02:18:41;22.30;51.70
15384;DHT22;7790;53.022;12.968;2022-07-23T02:22:41;22.30;51.80
15384;DHT22;7790;53.022;12.968;2022-07-23T02:26:44;22.20;51.70
15384;DHT22;7790;53.022;12.968;2022-07-23T02:30:46;22.20;51.80
15384;DHT22;7790;53.022;12.968;2022-07-23T02:34:47;22.30;51.80
15384;DHT22;7790;53.022;12.968;2022-07-23T02:38:48;22.30;51.80
15384;DHT22;7790;53.022;12.968;2022-07-23T02:42:50;22.30;51.90
15384;DHT22;7790;53.022;12.968;2022-07-23T02:46:50;22.20;51.80
15384;DHT22;7790;53.022;12.968;2022-07-23T02:50:52;22.30;51.90
15384;DHT22;7790;53.022;12.968;2022-07-23T02:54:57;22.30;52.00
15384;DHT22;7790;53.022;12.968;2022-07-23T02:58:58;22.20;51.90
15384;DHT22;7790;53.022;12.968;2022-07-23T03:02:59;22.20;51.90
15384;DHT22;7790;53.022;12.968;2022-07-23T03:07:00;22.20;51.80
15384;DHT22;7790;53.022;12.968;2022-07-23T03:11:01;22.20;51.90
15384;DHT22;7790;53.022;12.968;2022-07-23T03:15:02;22.20;51.80
15384;DHT22;7790;53.022;12.968;2022-07-23T03:19:03;22.10;51.70
15384;DHT22;7790;53.022;12.968;2022-07-23T03:23:04;22.20;51.80
15384;DHT22;7790;53.022;12.968;2022-07-23T03:27:06;22.10;51.70
15384;DHT22;7790;53.022;12.968;2022-07-23T03:31:06;22.10;51.80
15384;DHT22;7790;53.022;12.968;2022-07-23T03:35:08;22.10;51.70
15384;DHT22;7790;53.022;12.968;2022-07-23T03:39:11;22.10;51.60
15384;DHT22;7790;53.022;12.968;2022-07-23T03:43:11;22.10;51.50
15384;DHT22;7790;53.022;12.968;2022-07-23T03:47:12;22.10;51.40
15384;DHT22;7790;53.022;12.968;2022-07-23T03:51:13;22.10;51.50
15384;DHT22;7790;53.022;12.968;2022-07-23T03:55:15;22.10;51.50
15384;DHT22;7790;53.022;12.968;2022-07-23T03:59:16;22.00;51.40
15384;DHT22;7790;53.022;12.968;2022-07-23T04:03:17;22.10;51.40
15384;DHT22;7790;53.022;12.968;2022-07-23T04:07:18;22.10;51.40
15384;DHT22;7790;53.022;12.968;2022-07-23T04:11:19;22.00;51.40
15384;DHT22;7790;53.022;12.968;2022-07-23T04:15:20;22.00;51.50
15384;DHT22;7790;53.022;12.968;2022-07-23T04:19:21;22.00;51.50
15384;DHT22;7790;53.022;12.968;2022-07-23T04:23:31;22.00;51.70
15384;DHT22;7790;53.022;12.968;2022-07-23T04:27:31;22.00;51.90
15384;DHT22;7790;53.022;12.968;2022-07-23T04:31:34;22.00;52.00
15384;DHT22;7790;53.022;12.968;2022-07-23T04:35:35;22.00;52.10
15384;DHT22;7790;53.022;12.968;2022-07-23T04:39:46;22.00;52.20
15384;DHT22;7790;53.022;12.968;2022-07-23T04:43:47;22.00;52.40
15384;DHT22;7790;53.022;12.968;2022-07-23T04:47:48;22.00;52.50
15384;DHT22;7790;53.022;12.968;2022-07-23T04:51:48;22.00;52.60
15384;DHT22;7790;53.022;12.968;2022-07-23T04:55:49;22.00;52.70
15384;DHT22;7790;53.022;12.968;2022-07-23T04:59:50;22.00;52.70
15384;DHT22;7790;53.022;12.968;2022-07-23T05:03:51;22.00;52.80
15384;DHT22;7790;53.022;12.968;2022-07-23T05:07:52;22.00;52.80
15384;DHT22;7790;53.022;12.968;2022-07-23T05:11:53;22.00;52.90
15384;DHT22;7790;53.022;12.968;2022-07-23T05:15:55;22.10;53.10
15384;DHT22;7790;53.022;12.968;2022-07-23T05:19:58;22.10;53.00
15384;DHT22;7790;53.022;12.968;2022-07-23T05:23:59;22.10;53.30
15384;DHT22;7790;53.022;12.968;2022-07-23T05:28:00;22.10;53.20
15384;DHT22;7790;53.022;12.968;2022-07-23T05:32:01;22.10;53.10
15384;DHT22;7790;53.022;12.968;2022-07-23T05:36:05;22.10;53.20
15384;DHT22;7790;53.022;12.968;2022-07-23T05:40:09;22.20;53.20
15384;DHT22;7790;53.022;12.968;2022-07-23T05:44:11;22.10;53.10
15384;DHT22;7790;53.022;12.968;2022-07-23T05:48:14;22.20;53.30
15384;DHT22;7790;53.022;12.968;2022-07-23T05:52:25;22.20;53.20
15384;DHT22;7790;53.022;12.968;2022-07-23T05:56:45;22.20;53.40
15384;DHT22;7790;53.022;12.968;2022-07-23T06:00:46;22.20;53.40
15384;DHT22;7790;53.022;12.968;2022-07-23T06:04:47;22.20;53.40
15384;DHT22;7790;53.022;12.968;2022-07-23T06:08:57;22.20;53.50
15384;DHT22;7790;53.022;12.968;2022-07-23T06:12:58;22.20;53.60
15384;DHT22;7790;53.022;12.968;2022-07-23T06:16:59;22.20;53.60
15384;DHT22;7790;53.022;12.968;2022-07-23T06:21:01;22.20;53.60
15384;DHT22;7790;53.022;12.968;2022-07-23T06:25:02;22.20;53.70
15384;DHT22;7790;53.022;12.968;2022-07-23T06:29:03;22.20;53.80
15384;DHT22;7790;53.022;12.968;2022-07-23T06:33:04;22.20;53.80
15384;DHT22;7790;53.022;12.968;2022-07-23T06:37:05;22.20;53.80
15384;DHT22;7790;53.022;12.968;2022-07-23T06:41:06;22.20;53.70
15384;DHT22;7790;53.022;12.968;2022-07-23T06:45:07;22.20;53.90
15384;DHT22;7790;53.022;12.968;2022-07-23T06:49:10;22.20;53.70
15384;DHT22;7790;53.022;12.968;2022-07-23T06:53:11;22.20;54.30
15384;DHT22;7790;53.022;12.968;2022-07-23T06:57:16;22.20;53.70
15384;DHT22;7790;53.022;12.968;2022-07-23T07:01:17;22.10;54.00
15384;DHT22;7790;53.022;12.968;2022-07-23T07:05:18;22.10;53.90
15384;DHT22;7790;53.022;12.968;2022-07-23T07:09:19;22.10;53.80
15384;DHT22;7790;53.022;12.968;2022-07-23T07:13:20;22.00;53.80
15384;DHT22;7790;53.022;12.968;2022-07-23T07:17:21;22.10;53.80
15384;DHT22;7790;53.022;12.968;2022-07-23T07:21:22;22.00;53.60
15384;DHT22;7790;53.022;12.968;2022-07-23T07:25:22;22.00;53.60
15384;DHT22;7790;53.022;12.968;2022-07-23T07:29:23;22.00;52.60
15384;DHT22;7790;53.022;12.968;2022-07-23T07:33:24;22.00;52.70
15384;DHT22;7790;53.022;12.968;2022-07-23T07:37:25;21.90;51.80
15384;DHT22;7790;53.022;12.968;2022-07-23T07:41:26;21.90;51.90
15384;DHT22;7790;53.022;12.968;2022-07-23T07:45:27;21.90;51.60
15384;DHT22;7790;53.022;12.968;2022-07-23T07:49:28;21.80;51.40
15384;DHT22;7790;53.022;12.968;2022-07-23T07:53:28;21.90;51.70
15384;DHT22;7790;53.022;12.968;2022-07-23T07:57:29;21.90;51.80
15384;DHT22;7790;53.022;12.968;2022-07-23T08:01:30;21.80;51.00
15384;DHT22;7790;53.022;12.968;2022-07-23T08:05:31;21.80;51.30
15384;DHT22;7790;53.022;12.968;2022-07-23T08:09:32;21.80;51.60
15384;DHT22;7790;53.022;12.968;2022-07-23T08:13:33;21.70;51.30
15384;DHT22;7790;53.022;12.968;2022-07-23T08:17:33;21.70;51.20
15384;DHT22;7790;53.022;12.968;2022-07-23T08:21:34;21.70;51.00
15384;DHT22;7790;53.022;12.968;2022-07-23T08:25:40;21.70;51.20
15384;DHT22;7790;53.022;12.968;2022-07-23T08:29:41;21.70;51.30
15384;DHT22;7790;53.022;12.968;2022-07-23T08:33:42;21.70;51.00
15384;DHT22;7790;53.022;12.968;2022-07-23T08:37:42;21.70;50.80
15384;DHT22;7790;53.022;12.968;2022-07-23T08:41:43;21.80;51.80
15384;DHT22;7790;53.022;12.968;2022-07-23T08:45:48;21.80;50.70
15384;DHT22;7790;53.022;12.968;2022-07-23T08:49:49;21.70;50.80
15384;DHT22;7790;53.022;12.968;2022-07-23T08:53:50;21.80;50.90
15384;DHT22;7790;53.022;12.968;2022-07-23T08:57:52;21.90;51.30
15384;DHT22;7790;53.022;12.968;2022-07-23T09:01:53;21.90;51.10
15384;DHT22;7790;53.022;12.968;2022-07-23T09:05:55;21.80;50.50
15384;DHT22;7790;53.022;12.968;2022-07-23T09:10:10;21.90;51.00
15384;DHT22;7790;53.022;12.968;2022-07-23T09:14:11;22.00;51.10
15384;DHT22;7790;53.022;12.968;2022-07-23T09:18:15;22.00;51.10
15384;DHT22;7790;53.022;12.968;2022-07-23T09:22:23;22.00;51.40
15384;DHT22;7790;53.022;12.968;2022-07-23T09:30:33;22.00;51.20
15384;DHT22;7790;53.022;12.968;2022-07-23T09:34:38;22.10;51.00
15384;DHT22;7790;53.022;12.968;2022-07-23T09:38:51;22.10;50.40
15384;DHT22;7790;53.022;12.968;2022-07-23T09:42:55;22.10;50.80
15384;DHT22;7790;53.022;12.968;2022-07-23T09:46:59;22.20;50.50
15384;DHT22;7790;53.022;12.968;2022-07-23T09:51:04;22.20;50.50
15384;DHT22;7790;53.022;12.968;2022-07-23T09:55:06;22.20;50.40
15384;DHT22;7790;53.022;12.968;2022-07-23T09:59:07;22.20;50.20
15384;DHT22;7790;53.022;12.968;2022-07-23T10:03:18;22.20;50.20
15384;DHT22;7790;53.022;12.968;2022-07-23T10:07:43;22.20;50.30
15384;DHT22;7790;53.022;12.968;2022-07-23T10:12:14;22.20;50.10
15384;DHT22;7790;53.022;12.968;2022-07-23T10:16:39;22.30;50.20
15384;DHT22;7790;53.022;12.968;2022-07-23T10:20:40;22.30;50.20
15384;DHT22;7790;53.022;12.968;2022-07-23T10:25:54;22.40;50.20
15384;DHT22;7790;53.022;12.968;2022-07-23T10:29:51;22.40;49.90
15384;DHT22;7790;53.022;12.968;2022-07-23T10:38:54;22.30;49.50
15384;DHT22;7790;53.022;12.968;2022-07-23T10:42:59;22.30;49.80
15384;DHT22;7790;53.022;12.968;2022-07-23T10:47:03;22.30;49.60
15384;DHT22;7790;53.022;12.968;2022-07-23T10:51:22;22.40;49.80
15384;DHT22;7790;53.022;12.968;2022-07-23T10:59:25;22.40;49.60
15384;DHT22;7790;53.022;12.968;2022-07-23T11:03:34;22.40;50.00
15384;DHT22;7790;53.022;12.968;2022-07-23T11:16:14;22.40;49.10
15384;DHT22;7790;53.022;12.968;2022-07-23T11:20:18;22.40;48.90
15384;DHT22;7790;53.022;12.968;2022-07-23T11:24:21;22.40;48.70
15384;DHT22;7790;53.022;12.968;2022-07-23T11:28:22;22.50;48.50
15384;DHT22;7790;53.022;12.968;2022-07-23T11:32:32;22.50;48.40
15384;DHT22;7790;53.022;12.968;2022-07-23T11:36:50;22.40;47.90
15384;DHT22;7790;53.022;12.968;2022-07-23T11:40:54;22.40;48.20
15384;DHT22;7790;53.022;12.968;2022-07-23T11:44:55;22.40;47.50
15384;DHT22;7790;53.022;12.968;2022-07-23T11:49:02;22.50;47.60
15384;DHT22;7790;53.022;12.968;2022-07-23T11:53:03;22.40;47.10
15384;DHT22;7790;53.022;12.968;2022-07-23T11:57:04;22.40;47.70
15384;DHT22;7790;53.022;12.968;2022-07-23T12:01:05;22.50;48.10
15384;DHT22;7790;53.022;12.968;2022-07-23T12:05:07;22.40;47.60
15384;DHT22;7790;53.022;12.968;2022-07-23T12:09:10;22.50;47.90
15384;DHT22;7790;53.022;12.968;2022-07-23T12:13:21;22.50;47.50
15384;DHT22;7790;53.022;12.968;2022-07-23T12:17:31;22.50;48.00
15384;DHT22;7790;53.022;12.968;2022-07-23T12:21:32;22.50;47.90
15384;DHT22;7790;53.022;12.968;2022-07-23T12:25:35;22.50;47.90
15384;DHT22;7790;53.022;12.968;2022-07-23T12:29:36;22.50;47.70
15384;DHT22;7790;53.022;12.968;2022-07-23T12:33:39;22.50;47.60
15384;DHT22;7790;53.022;12.968;2022-07-23T12:37:42;22.50;47.90
15384;DHT22;7790;53.022;12.968;2022-07-23T12:41:53;22.50;47.80
15384;DHT22;7790;53.022;12.968;2022-07-23T12:50:04;22.50;47.10
15384;DHT22;7790;53.022;12.968;2022-07-23T12:54:08;22.60;47.70
15384;DHT22;7790;53.022;12.968;2022-07-23T12:58:18;22.60;46.80
15384;DHT22;7790;53.022;12.968;2022-07-23T13:02:20;22.60;47.30
15384;DHT22;7790;53.022;12.968;2022-07-23T13:06:21;22.60;47.30
15384;DHT22;7790;53.022;12.968;2022-07-23T13:10:21;22.60;47.50
15384;DHT22;7790;53.022;12.968;2022-07-23T13:14:24;22.60;47.50
15384;DHT22;7790;53.022;12.968;2022-07-23T13:18:26;22.60;46.90
15384;DHT22;7790;53.022;12.968;2022-07-23T13:22:27;22.70;46.80
15384;DHT22;7790;53.022;12.968;2022-07-23T13:26:27;22.70;46.90
15384;DHT22;7790;53.022;12.968;2022-07-23T13:30:29;22.80;47.50
15384;DHT22;7790;53.022;12.968;2022-07-23T13:34:29;22.80;46.40
15384;DHT22;7790;53.022;12.968;2022-07-23T13:38:30;22.90;46.50
15384;DHT22;7790;53.022;12.968;2022-07-23T13:42:31;23.00;46.30
15384;DHT22;7790;53.022;12.968;2022-07-23T13:46:32;23.00;46.60
15384;DHT22;7790;53.022;12.968;2022-07-23T13:50:34;23.10;47.10
15384;DHT22;7790;53.022;12.968;2022-07-23T13:54:35;23.10;45.80
15384;DHT22;7790;53.022;12.968;2022-07-23T13:58:36;23.10;45.80
15384;DHT22;7790;53.022;12.968;2022-07-23T14:02:38;23.20;46.20
15384;DHT22;7790;53.022;12.968;2022-07-23T14:06:40;23.20;46.00
15384;DHT22;7790;53.022;12.968;2022-07-23T14:10:41;23.20;45.70
15384;DHT22;7790;53.022;12.968;2022-07-23T14:14:42;23.20;44.30
15384;DHT22;7790;53.022;12.968;2022-07-23T14:18:43;23.30;46.20
15384;DHT22;7790;53.022;12.968;2022-07-23T14:22:44;23.30;44.80
15384;DHT22;7790;53.022;12.968;2022-07-23T14:26:45;23.40;44.50
15384;DHT22;7790;53.022;12.968;2022-07-23T14:30:46;23.30;43.90
15384;DHT22;7790;53.022;12.968;2022-07-23T14:34:48;23.30;44.90
15384;DHT22;7790;53.022;12.968;2022-07-23T14:38:49;23.40;45.20
15384;DHT22;7790;53.022;12.968;2022-07-23T14:42:50;23.40;45.90
15384;DHT22;7790;53.022;12.968;2022-07-23T14:46:50;23.40;46.00
15384;DHT22;7790;53.022;12.968;2022-07-23T14:50:52;23.40;46.60
15384;DHT22;7790;53.022;12.968;2022-07-23T14:54:52;23.40;45.60
15384;DHT22;7790;53.022;12.968;2022-07-23T14:58:53;23.40;45.20
15384;DHT22;7790;53.022;12.968;2022-07-23T15:02:56;23.40;45.50
15384;DHT22;7790;53.022;12.968;2022-07-23T15:06:57;23.40;45.00
15384;DHT22;7790;53.022;12.968;2022-07-23T15:10:58;23.40;44.00
15384;DHT22;7790;53.022;12.968;2022-07-23T15:14:58;23.40;44.80
15384;DHT22;7790;53.022;12.968;2022-07-23T15:18:59;23.40;45.60
15384;DHT22;7790;53.022;12.968;2022-07-23T15:23:02;23.50;46.00
15384;DHT22;7790;53.022;12.968;2022-07-23T15:27:02;23.50;45.80
15384;DHT22;7790;53.022;12.968;2022-07-23T15:31:03;23.50;44.80
15384;DHT22;7790;53.022;12.968;2022-07-23T15:35:05;23.50;45.50
15384;DHT22;7790;53.022;12.968;2022-07-23T15:39:07;23.50;43.70
15384;DHT22;7790;53.022;12.968;2022-07-23T15:43:08;23.50;43.30
15384;DHT22;7790;53.022;12.968;2022-07-23T15:47:15;23.40;43.30
15384;DHT22;7790;53.022;12.968;2022-07-23T15:51:16;23.30;43.20
15384;DHT22;7790;53.022;12.968;2022-07-23T15:55:17;23.30;43.60
15384;DHT22;7790;53.022;12.968;2022-07-23T15:59:19;23.20;43.50
15384;DHT22;7790;53.022;12.968;2022-07-23T16:03:20;23.20;42.80
15384;DHT22;7790;53.022;12.968;2022-07-23T16:07:21;23.10;43.30
15384;DHT22;7790;53.022;12.968;2022-07-23T16:11:22;23.10;43.40
15384;DHT22;7790;53.022;12.968;2022-07-23T16:15:23;23.10;43.20
15384;DHT22;7790;53.022;12.968;2022-07-23T16:19:23;23.10;43.10
15384;DHT22;7790;53.022;12.968;2022-07-23T16:23:24;23.00;43.20
15384;DHT22;7790;53.022;12.968;2022-07-23T16:27:25;23.00;42.60
15384;DHT22;7790;53.022;12.968;2022-07-23T16:31:26;23.00;42.70
15384;DHT22;7790;53.022;12.968;2022-07-23T16:35:27;22.90;42.10
15384;DHT22;7790;53.022;12.968;2022-07-23T16:39:28;22.90;42.10
15384;DHT22;7790;53.022;12.968;2022-07-23T16:43:29;22.80;41.70
15384;DHT22;7790;53.022;12.968;2022-07-23T16:47:32;22.80;42.10
15384;DHT22;7790;53.022;12.968;2022-07-23T16:51:33;22.80;42.00
15384;DHT22;7790;53.022;12.968;2022-07-23T16:55:35;22.70;41.60
15384;DHT22;7790;53.022;12.968;2022-07-23T16:59:36;22.70;41.50
15384;DHT22;7790;53.022;12.968;2022-07-23T17:03:37;22.70;41.70
15384;DHT22;7790;53.022;12.968;2022-07-23T17:07:39;22.70;41.50
15384;DHT22;7790;53.022;12.968;2022-07-23T17:11:39;22.70;41.00
15384;DHT22;7790;53.022;12.968;2022-07-23T17:15:40;22.70;41.30
15384;DHT22;7790;53.022;12.968;2022-07-23T17:19:41;22.60;41.20
15384;DHT22;7790;53.022;12.968;2022-07-23T17:23:42;22.60;41.50
15384;DHT22;7790;53.022;12.968;2022-07-23T17:27:44;22.50;41.30
15384;DHT22;7790;53.022;12.968;2022-07-23T17:31:45;22.50;41.30
15384;DHT22;7790;53.022;12.968;2022-07-23T17:35:46;22.50;41.10
15384;DHT22;7790;53.022;12.968;2022-07-23T17:39:47;22.40;41.60
15384;DHT22;7790;53.022;12.968;2022-07-23T17:43:48;22.50;41.80
15384;DHT22;7790;53.022;12.968;2022-07-23T17:47:49;22.40;41.70
15384;DHT22;7790;53.022;12.968;2022-07-23T17:51:50;22.40;41.80
15384;DHT22;7790;53.022;12.968;2022-07-23T17:55:52;22.40;41.60
15384;DHT22;7790;53.022;12.968;2022-07-23T17:59:52;22.30;42.00
15384;DHT22;7790;53.022;12.968;2022-07-23T18:03:53;22.40;42.10
15384;DHT22;7790;53.022;12.968;2022-07-23T18:07:54;22.30;42.00
15384;DHT22;7790;53.022;12.968;2022-07-23T18:11:55;22.30;42.00
15384;DHT22;7790;53.022;12.968;2022-07-23T18:15:56;22.30;42.20
15384;DHT22;7790;53.022;12.968;2022-07-23T18:19:57;22.30;41.60
15384;DHT22;7790;53.022;12.968;2022-07-23T18:23:58;22.30;42.00
15384;DHT22;7790;53.022;12.968;2022-07-23T18:27:59;22.20;41.90
15384;DHT22;7790;53.022;12.968;2022-07-23T18:32:00;22.20;42.30
15384;DHT22;7790;53.022;12.968;2022-07-23T18:36:03;22.20;42.40
15384;DHT22;7790;53.022;12.968;2022-07-23T18:40:06;22.10;42.40
15384;DHT22;7790;53.022;12.968;2022-07-23T18:44:08;22.10;42.50
15384;DHT22;7790;53.022;12.968;2022-07-23T18:48:08;22.10;42.50
15384;DHT22;7790;53.022;12.968;2022-07-23T18:52:09;22.10;42.80
15384;DHT22;7790;53.022;12.968;2022-07-23T18:56:10;22.10;42.90
15384;DHT22;7790;53.022;12.968;2022-07-23T19:00:11;22.00;43.00
15384;DHT22;7790;53.022;12.968;2022-07-23T19:04:14;22.00;43.10
15384;DHT22;7790;53.022;12.968;2022-07-23T19:08:15;22.00;43.40
15384;DHT22;7790;53.022;12.968;2022-07-23T19:12:16;22.00;43.40
15384;DHT22;7790;53.022;12.968;2022-07-23T19:16:17;22.00;43.50
15384;DHT22;7790;53.022;12.968;2022-07-23T19:20:18;22.00;43.50
15384;DHT22;7790;53.022;12.968;2022-07-23T19:24:19;22.00;43.70
15384;DHT22;7790;53.022;12.968;2022-07-23T19:28:19;21.90;43.80
15384;DHT22;7790;53.022;12.968;2022-07-23T19:32:20;21.90;43.80
15384;DHT22;7790;53.022;12.968;2022-07-23T19:36:21;21.90;44.00
15384;DHT22;7790;53.022;12.968;2022-07-23T19:40:22;21.80;44.20
15384;DHT22;7790;53.022;12.968;2022-07-23T19:44:23;21.80;44.30
15384;DHT22;7790;53.022;12.968;2022-07-23T19:48:27;21.80;44.40
15384;DHT22;7790;53.022;12.968;2022-07-23T19:52:28;21.80;44.50
15384;DHT22;7790;53.022;12.968;2022-07-23T19:56:29;21.70;44.50
15384;DHT22;7790;53.022;12.968;2022-07-23T20:00:30;21.70;44.50
15384;DHT22;7790;53.022;12.968;2022-07-23T20:04:31;21.70;44.50
15384;DHT22;7790;53.022;12.968;2022-07-23T20:08:31;21.70;44.50
15384;DHT22;7790;53.022;12.968;2022-07-23T20:12:33;21.60;44.60
15384;DHT22;7790;53.022;12.968;2022-07-23T20:16:34;21.60;44.70
15384;DHT22;7790;53.022;12.968;2022-07-23T20:20:35;21.60;45.10
15384;DHT22;7790;53.022;12.968;2022-07-23T20:24:36;21.60;45.20
15384;DHT22;7790;53.022;12.968;2022-07-23T20:28:37;21.60;45.00
15384;DHT22;7790;53.022;12.968;2022-07-23T20:32:38;21.60;45.10
15384;DHT22;7790;53.022;12.968;2022-07-23T20:36:39;21.60;45.20
15384;DHT22;7790;53.022;12.968;2022-07-23T20:40:41;21.60;45.30
15384;DHT22;7790;53.022;12.968;2022-07-23T20:44:42;21.60;45.40
15384;DHT22;7790;53.022;12.968;2022-07-23T20:48:42;21.60;45.60
15384;DHT22;7790;53.022;12.968;2022-07-23T20:52:43;21.60;45.70
15384;DHT22;7790;53.022;12.968;2022-07-23T20:56:44;21.60;46.40
15384;DHT22;7790;53.022;12.968;2022-07-23T21:00:45;21.60;46.00
15384;DHT22;7790;53.022;12.968;2022-07-23T21:04:46;21.60;46.00
15384;DHT22;7790;53.022;12.968;2022-07-23T21:08:48;21.60;46.20
15384;DHT22;7790;53.022;12.968;2022-07-23T21:12:49;21.60;46.20
15384;DHT22;7790;53.022;12.968;2022-07-23T21:16:50;21.50;46.20
15384;DHT22;7790;53.022;12.968;2022-07-23T21:20:50;21.60;46.30
15384;DHT22;7790;53.022;12.968;2022-07-23T21:25:13;21.50;46.30
15384;DHT22;7790;53.022;12.968;2022-07-23T21:29:14;21.50;46.30
15384;DHT22;7790;53.022;12.968;2022-07-23T21:33:16;21.50;46.30
15384;DHT22;7790;53.022;12.968;2022-07-23T21:37:16;21.50;46.30
15384;DHT22;7790;53.022;12.968;2022-07-23T21:41:17;21.40;46.30
15384;DHT22;7790;53.022;12.968;2022-07-23T21:45:18;21.40;46.40
15384;DHT22;7790;53.022;12.968;2022-07-23T21:49:19;21.40;46.50
15384;DHT22;7790;53.022;12.968;2022-07-23T21:53:20;21.30;46.90
15384;DHT22;7790;53.022;12.968;2022-07-23T21:57:21;21.30;47.00
15384;DHT22;7790;53.022;12.968;2022-07-23T22:01:22;21.30;47.30
15384;DHT22;7790;53.022;12.968;2022-07-23T22:05:23;21.20;47.20
15384;DHT22;7790;53.022;12.968;2022-07-23T22:09:24;21.10;47.40
15384;DHT22;7790;53.022;12.968;2022-07-23T22:13:25;21.10;47.50
15384;DHT22;7790;53.022;12.968;2022-07-23T22:17:26;21.10;47.50
15384;DHT22;7790;53.022;12.968;2022-07-23T22:21:26;21.10;47.60
15384;DHT22;7790;53.022;12.968;2022-07-23T22:25:27;21.10;47.60
15384;DHT22;7790;53.022;12.968;2022-07-23T22:29:28;21.00;47.70
15384;DHT22;7790;53.022;12.968;2022-07-23T22:33:29;21.00;47.70
15384;DHT22;7790;53.022;12.968;2022-07-23T22:37:30;21.00;47.80
15384;DHT22;7790;53.022;12.968;2022-07-23T22:41:31;21.00;47.80
15384;DHT22;7790;53.022;12.968;2022-07-23T22:45:32;21.00;47.90
15384;DHT22;7790;53.022;12.968;2022-07-23T22:49:33;20.90;47.80
15384;DHT22;7790;53.022;12.968;2022-07-23T22:53:33;20.90;47.80
15384;DHT22;7790;53.022;12.968;2022-07-23T22:57:34;20.80;47.80
15384;DHT22;7790;53.022;12.968;2022-07-23T23:01:35;20.90;48.00
15384;DHT22;7790;53.022;12.968;2022-07-23T23:05:36;20.80;47.90
15384;DHT22;7790;53.022;12.968;2022-07-23T23:09:37;20.80;47.80
15384;DHT22;7790;53.022;12.968;2022-07-23T23:13:37;20.80;47.80
15384;DHT22;7790;53.022;12.968;2022-07-23T23:17:38;20.70;47.80
15384;DHT22;7790;53.022;12.968;2022-07-23T23:21:40;20.70;47.90
15384;DHT22;7790;53.022;12.968;2022-07-23T23:25:42;20.70;47.90
15384;DHT22;7790;53.022;12.968;2022-07-23T23:29:42;20.70;47.90
15384;DHT22;7790;53.022;12.968;2022-07-23T23:33:43;20.60;48.00
15384;DHT22;7790;53.022;12.968;2022-07-23T23:37:44;20.60;47.90
15384;DHT22;7790;53.022;12.968;2022-07-23T23:41:45;20.70;47.80
15384;DHT22;7790;53.022;12.968;2022-07-23T23:45:46;20.70;47.80
15384;DHT22;7790;53.022;12.968;2022-07-23T23:49:46;20.60;47.90
15384;DHT22;7790;53.022;12.968;2022-07-23T23:53:47;20.50;47.90
15384;DHT22;7790;53.022;12.968;2022-07-23T23:57:48;20.50;47.80
